Strona główna
METAR-TAF:

METAR-TAF

Lotnisko :

Port lotniczy Lourdes

Tarbes Lourdes, Francja

Szerokość geograficzna: 43-11N, Długość geograficzna: 000-00W, wysokość: 379 m

Aktualna obserwacja pogody

Raport powstał 51 minut temu, godzina 17:30 UTC
Wiatr 5 kt od wschodnio-północny wschód, zmienny między północno-północny wschód i wschodnio-południowy wschód
Temperatura 28°C
Wilgotność 48%
Ciśnienie 1010 hPa
Widzialność 10 km lub więcej

METAR: LFBT 251730Z AUTO 07005KT 020V110 9999 NCD 28/16 Q1010 NOSIG

czas: 20:21 (18:21 UTC)

Prognoza

Raport powstał 1 godzina i 21 minut temu, godzina 17:00 UTC
Prognoza ważna od 25 godzina 18 UTC do 26 godzina 18 UTC
Wiatr 5 kt od wschodnio-północny wschód
Widzialność 10 km lub więcej
Brak chmur poniżej 1500 m i brak chmur cumulonimbus

TAF: LFBT 251700Z 2518/2618 07005KT CAVOK

Obserwacja i prognoza pogody dla ponad 4000 lotnisk (raport METAR i TAF).

Dostępne stacje oznaczono żółtymi i czerwonymi punktami na mapie.

Najedź kursorem aby zobaczyć nazwę stacji.

Kliknij aby zobaczyć obserwacje i prognozy pogody.

Aby zmienić mapę: kliknij na zielony przycisk z czarnym krzyżykiem, aby powiększyć; na zielony przycisk z myślnikiem, aby pomniejszyć; na zielone strzałki, aby przejść do map sąsiednich.


METAR-TAF: